Terminal Aerodrome Forecast
Issued by NWS

Home | Current Version | Previous Version | Text Only | Print | Product List | Glossary On
Versions: 1 2 3 4 5 6 7 8 9 10 11 12 13 14 15 16 17 18 19 20 21 22 23 24 25 26 27 28 29 30 31 32 33 34 35 36 37 38
000
FTUS43 KGRB 300300 AAA
TAFRHI
TAF AMD
KRHI 300355Z 3004/3024 VRB03KT 6SM HZ VCTS SCT012CB BKN060 OVC120
      TEMPO 3004/3008 2SM SHRA BR BKN015 OVC040
     FM301000 30003KT 3SM -SHRA BR OVC006
     FM301400 29006KT 5SM -SHRA BR OVC008
     FM301800 32008KT 5SM HZ BKN012 BKN030=

USA.gov is the U.S. government's official web portal to all federal, state and local government web resources and services.